Time;durP1;ratioP1;P1;durP2;ratioP2;P2;SDS_P1;SDS_P2;PMS_P1;PMS_P2;Temp;Humidity;BMP_temperature;BMP_pressure;BME280_temperature;BME280_humidity;BME280_pressure;Samples;Min_cycle;Max_cycle;Signal;HPM_P1;HPM_P2
2022/08/02 00:02:21;;;;;;;0.70;0.50;;;19.90;99.90;;;;;;5162257;27;20557;-73
2022/08/02 00:04:50;;;;;;;0.70;0.50;;;19.90;99.90;;;;;;5162168;27;20497;-73
2022/08/02 00:07:18;;;;;;;0.97;0.40;;;19.80;99.90;;;;;;5162431;27;20486;-73
2022/08/02 00:09:45;;;;;;;0.80;0.50;;;19.80;99.90;;;;;;5161525;27;20454;-74
2022/08/02 00:12:12;;;;;;;0.60;0.40;;;19.80;99.90;;;;;;5161577;27;20577;-74
2022/08/02 00:14:39;;;;;;;0.93;0.60;;;19.80;99.90;;;;;;5162109;27;20498;-74
2022/08/02 00:17:06;;;;;;;0.80;0.60;;;19.80;99.90;;;;;;5161749;27;20881;-73
2022/08/02 00:19:35;;;;;;;1.00;0.60;;;19.80;99.90;;;;;;5161798;27;20543;-74
2022/08/02 00:22:02;;;;;;;0.90;0.50;;;19.80;99.90;;;;;;5162913;27;20450;-74
2022/08/02 00:24:33;;;;;;;1.07;0.50;;;19.80;99.90;;;;;;5162471;27;20825;-73
2022/08/02 00:27:02;;;;;;;0.80;0.50;;;19.80;99.90;;;;;;5161474;27;20821;-74
2022/08/02 00:29:29;;;;;;;1.07;0.63;;;19.80;99.90;;;;;;5161366;27;20446;-74
2022/08/02 00:31:57;;;;;;;0.70;0.50;;;19.80;99.90;;;;;;5161435;27;20447;-73
2022/08/02 00:34:24;;;;;;;1.00;0.50;;;19.80;99.90;;;;;;5161494;27;20482;-74
2022/08/02 00:36:52;;;;;;;0.80;0.50;;;19.80;99.90;;;;;;5161453;27;20450;-74
2022/08/02 00:39:19;;;;;;;1.83;0.60;;;19.80;99.90;;;;;;5161523;27;20478;-74
2022/08/02 00:41:48;;;;;;;0.90;0.60;;;19.90;99.90;;;;;;5160356;27;20454;-74
2022/08/02 00:44:16;;;;;;;2.63;0.60;;;19.90;99.90;;;;;;5161125;27;20482;-74
2022/08/02 00:46:43;;;;;;;0.67;0.50;;;19.90;99.90;;;;;;5161121;27;20899;-75
2022/08/02 00:49:10;;;;;;;0.90;0.50;;;19.80;99.90;;;;;;5160467;27;20481;-75
2022/08/02 00:51:37;;;;;;;0.70;0.50;;;19.80;99.90;;;;;;5160825;27;20931;-74
2022/08/02 00:54:06;;;;;;;0.80;0.40;;;19.70;99.90;;;;;;5160643;27;20485;-74
2022/08/02 00:56:34;;;;;;;1.70;0.50;;;19.70;99.90;;;;;;5160766;27;20494;-74
2022/08/02 00:59:01;;;;;;;0.87;0.60;;;19.70;99.90;;;;;;5160851;27;20517;-75
2022/08/02 01:01:38;;;;;;;0.70;0.47;;;19.70;99.90;;;;;;5160801;27;20466;-75
2022/08/02 01:04:06;;;;;;;0.70;0.50;;;19.70;99.90;;;;;;5161290;27;20722;-75
2022/08/02 01:06:33;;;;;;;2.57;0.60;;;19.80;99.90;;;;;;5160389;27;20461;-74
2022/08/02 01:09:01;;;;;;;0.60;0.40;;;19.90;99.90;;;;;;5161705;27;20470;-75
2022/08/02 01:11:29;;;;;;;1.40;0.57;;;19.80;99.90;;;;;;5161108;27;20535;-74
2022/08/02 01:13:58;;;;;;;0.70;0.50;;;19.90;99.90;;;;;;5161003;27;20443;-75
2022/08/02 01:16:30;;;;;;;1.60;0.40;;;19.80;99.90;;;;;;5161074;27;20443;-74
2022/08/02 01:19:08;;;;;;;1.07;0.60;;;19.80;99.90;;;;;;5161266;27;20475;-74
2022/08/02 01:22:05;;;;;;;0.60;0.40;;;19.80;99.90;;;;;;5160994;27;20450;-74
2022/08/02 01:24:58;;;;;;;0.63;0.40;;;19.90;99.90;;;;;;5161565;27;20483;-74
2022/08/02 01:27:39;;;;;;;0.50;0.40;;;19.80;99.90;;;;;;5160538;27;20500;-74
2022/08/02 01:30:08;;;;;;;2.27;0.50;;;19.80;99.90;;;;;;5160502;27;20507;-74
2022/08/02 01:32:41;;;;;;;1.30;0.50;;;19.90;99.90;;;;;;5160263;27;20455;-74
2022/08/02 01:35:13;;;;;;;0.50;0.30;;;20.00;99.90;;;;;;5160473;27;20443;-75
2022/08/02 01:37:47;;;;;;;0.60;0.50;;;20.00;96.70;;;;;;5160460;27;20818;-75
2022/08/02 01:40:21;;;;;;;2.00;0.40;;;20.10;84.70;;;;;;5160522;27;20820;-74
2022/08/02 01:42:52;;;;;;;0.50;0.30;;;20.20;57.80;;;;;;5160606;27;20487;-74
2022/08/02 01:45:24;;;;;;;0.83;0.40;;;20.20;55.20;;;;;;5159992;27;20447;-73
2022/08/02 01:47:53;;;;;;;0.60;0.33;;;20.20;56.10;;;;;;5160391;27;20459;-73
2022/08/02 01:50:26;;;;;;;2.00;0.40;;;20.20;49.90;;;;;;5160121;27;20932;-74
2022/08/02 01:52:55;;;;;;;0.60;0.33;;;20.20;51.10;;;;;;5160017;27;20451;-74
2022/08/02 01:55:24;;;;;;;0.60;0.30;;;20.10;47.50;;;;;;5160634;27;20443;-73
2022/08/02 01:57:53;;;;;;;0.70;0.40;;;20.10;44.10;;;;;;5160728;27;20507;-74
2022/08/02 02:00:25;;;;;;;0.70;0.40;;;20.10;34.30;;;;;;5160098;27;20818;-73
2022/08/02 02:02:55;;;;;;;0.60;0.30;;;20.20;29.40;;;;;;5160330;27;20461;-74
2022/08/02 02:05:24;;;;;;;0.77;0.40;;;20.20;17.40;;;;;;5160455;27;20896;-74
2022/08/02 02:07:56;;;;;;;0.50;0.30;;;20.20;13.30;;;;;;5160109;27;20459;-73
2022/08/02 02:10:26;;;;;;;0.60;0.40;;;20.20;15.70;;;;;;5159522;27;20973;-74
2022/08/02 02:12:54;;;;;;;0.90;0.40;;;20.30;17.10;;;;;;5159508;27;20483;-74
2022/08/02 02:15:24;;;;;;;1.37;0.50;;;20.30;22.10;;;;;;5159048;27;20459;-74
2022/08/02 02:17:53;;;;;;;0.50;0.40;;;20.60;7.60;;;;;;5158885;27;20484;-75
2022/08/02 02:20:21;;;;;;;0.70;0.37;;;20.80;1.00;;;;;;5158794;27;20492;-74
2022/08/02 02:22:49;;;;;;;0.67;0.50;;;20.90;1.00;;;;;;5159024;27;20475;-75
2022/08/02 02:25:18;;;;;;;0.70;0.40;;;20.90;1.00;;;;;;5158280;27;20531;-75
2022/08/02 02:27:51;;;;;;;0.73;0.40;;;20.70;1.00;;;;;;5157811;27;20516;-75
2022/08/02 02:30:19;;;;;;;0.60;0.40;;;20.40;9.90;;;;;;5157404;27;20490;-74
2022/08/02 02:32:50;;;;;;;0.70;0.40;;;20.20;27.30;;;;;;5157003;27;20454;-75
2022/08/02 02:35:18;;;;;;;0.70;0.50;;;20.20;36.10;;;;;;5157802;27;20434;-75
2022/08/02 02:37:48;;;;;;;0.70;0.40;;;20.30;25.60;;;;;;5158079;27;20480;-75
2022/08/02 02:40:17;;;;;;;0.90;0.40;;;20.50;8.70;;;;;;5158318;27;20660;-75
2022/08/02 02:42:46;;;;;;;0.50;0.40;;;20.60;1.00;;;;;;5159218;27;20482;-75
2022/08/02 02:45:15;;;;;;;1.10;0.40;;;20.40;4.50;;;;;;5159295;27;20511;-74
2022/08/02 02:47:43;;;;;;;0.50;0.30;;;20.20;28.90;;;;;;5139743;27;20450;-74
2022/08/02 02:50:12;;;;;;;0.70;0.50;;;20.00;44.60;;;;;;5158520;27;20921;-72
2022/08/02 02:52:40;;;;;;;0.80;0.40;;;20.10;50.40;;;;;;5158322;27;20496;-73
2022/08/02 02:55:09;;;;;;;0.67;0.40;;;20.10;41.50;;;;;;5158081;27;20463;-74
2022/08/02 02:57:37;;;;;;;0.70;0.50;;;19.90;51.10;;;;;;5157237;27;20581;-74
2022/08/02 03:00:07;;;;;;;0.53;0.40;;;19.70;76.40;;;;;;5157590;27;20828;-74
2022/08/02 03:02:34;;;;;;;0.60;0.40;;;19.50;99.90;;;;;;5157321;27;20458;-74
2022/08/02 03:05:03;;;;;;;0.60;0.40;;;19.20;99.90;;;;;;5156431;27;20451;-74
2022/08/02 03:07:33;;;;;;;0.60;0.40;;;19.20;99.90;;;;;;5155885;27;20457;-73
2022/08/02 03:10:00;;;;;;;0.60;0.37;;;19.10;99.90;;;;;;5156504;27;20445;-73
2022/08/02 03:12:28;;;;;;;0.70;0.40;;;19.10;99.90;;;;;;5157170;27;20569;-73
2022/08/02 03:14:57;;;;;;;0.70;0.43;;;19.20;99.90;;;;;;5156962;27;20487;-73
2022/08/02 03:17:24;;;;;;;0.50;0.30;;;19.40;99.90;;;;;;5157363;27;20493;-74
2022/08/02 03:19:51;;;;;;;0.50;0.40;;;19.40;99.90;;;;;;5157248;27;20574;-73
2022/08/02 03:22:18;;;;;;;0.70;0.40;;;19.50;99.90;;;;;;5158410;27;20474;-73
2022/08/02 03:24:46;;;;;;;0.60;0.40;;;19.60;99.90;;;;;;5158152;27;20791;-74
2022/08/02 03:27:13;;;;;;;1.30;0.50;;;19.70;73.30;;;;;;5158141;27;20450;-74
2022/08/02 03:29:40;;;;;;;1.87;0.47;;;20.00;27.20;;;;;;5157090;27;20501;-74
2022/08/02 03:32:07;;;;;;;0.50;0.30;;;20.10;8.60;;;;;;5156662;27;20519;-73
2022/08/02 03:34:34;;;;;;;0.70;0.43;;;20.10;1.00;;;;;;5158512;27;20486;-74
2022/08/02 03:37:03;;;;;;;0.50;0.40;;;20.00;1.00;;;;;;5158525;27;20503;-74
2022/08/02 03:39:33;;;;;;;0.60;0.30;;;19.80;1.00;;;;;;5157627;27;20527;-73
2022/08/02 03:42:02;;;;;;;0.80;0.50;;;19.70;16.20;;;;;;5156143;27;20527;-73
2022/08/02 03:44:29;;;;;;;0.60;0.40;;;19.60;29.30;;;;;;5157715;27;20458;-73
2022/08/02 03:46:57;;;;;;;0.60;0.40;;;19.50;41.00;;;;;;5157505;27;20443;-74
2022/08/02 03:49:24;;;;;;;0.77;0.50;;;19.50;45.40;;;;;;5156539;27;20561;-74
2022/08/02 03:51:54;;;;;;;0.60;0.40;;;19.60;40.40;;;;;;5157910;27;20463;-74
2022/08/02 03:54:22;;;;;;;0.50;0.30;;;19.70;28.50;;;;;;5158364;27;20990;-74
2022/08/02 03:56:49;;;;;;;0.80;0.30;;;19.80;21.30;;;;;;5158560;27;20489;-74
2022/08/02 03:59:17;;;;;;;1.27;0.50;;;19.90;20.80;;;;;;5157503;27;20518;-73
2022/08/02 04:01:45;;;;;;;0.50;0.40;;;20.10;1.00;;;;;;5159197;27;20463;-74
2022/08/02 04:04:12;;;;;;;0.60;0.40;;;20.20;1.00;;;;;;5159728;27;20462;-73
2022/08/02 04:06:38;;;;;;;0.90;0.40;;;20.20;1.00;;;;;;5160358;27;20490;-73
2022/08/02 04:09:05;;;;;;;0.70;0.50;;;20.20;1.00;;;;;;5160080;27;20490;-74
2022/08/02 04:11:31;;;;;;;0.60;0.40;;;20.20;1.00;;;;;;5159996;27;20960;-76
2022/08/02 04:14:00;;;;;;;0.70;0.50;;;20.20;1.00;;;;;;5160075;27;20458;-74
2022/08/02 04:16:38;;;;;;;0.73;0.40;;;20.40;1.00;;;;;;5159323;27;20538;-74
2022/08/02 04:19:08;;;;;;;0.60;0.40;;;20.40;1.00;;;;;;5158064;27;20982;-75
2022/08/02 04:21:38;;;;;;;0.50;0.40;;;20.20;1.00;;;;;;5157695;27;20579;-76
2022/08/02 04:24:08;;;;;;;0.70;0.47;;;19.90;1.00;;;;;;5158244;27;20523;-76
2022/08/02 04:26:37;;;;;;;0.83;0.40;;;19.70;1.00;;;;;;5157615;27;20803;-75
2022/08/02 04:29:05;;;;;;;0.70;0.50;;;19.60;12.40;;;;;;5157940;27;20455;-75
2022/08/02 04:31:34;;;;;;;0.70;0.43;;;19.60;17.90;;;;;;5157083;27;20530;-76
2022/08/02 04:34:01;;;;;;;0.77;0.50;;;19.70;18.00;;;;;;5156323;27;20463;-75
2022/08/02 04:36:29;;;;;;;0.50;0.30;;;19.70;1.00;;;;;;5157330;27;20519;-76
2022/08/02 04:38:56;;;;;;;0.60;0.40;;;19.70;1.00;;;;;;5157400;27;20478;-76
2022/08/02 04:41:23;;;;;;;0.60;0.40;;;19.70;1.00;;;;;;5161099;27;20478;-76
2022/08/02 04:43:51;;;;;;;0.60;0.30;;;19.60;1.00;;;;;;5159646;27;20447;-76
2022/08/02 04:46:18;;;;;;;0.83;0.40;;;19.50;26.20;;;;;;5160869;27;20450;-75
2022/08/02 04:48:46;;;;;;;0.60;0.40;;;19.40;40.30;;;;;;5161389;27;20482;-75
2022/08/02 04:51:13;;;;;;;1.00;0.40;;;19.30;55.60;;;;;;5161344;27;20957;-75
2022/08/02 04:53:40;;;;;;;0.60;0.40;;;19.30;74.80;;;;;;5161666;27;20521;-75
2022/08/02 04:56:07;;;;;;;2.03;0.50;;;19.30;82.80;;;;;;5161446;27;20443;-76
2022/08/02 04:58:34;;;;;;;1.33;0.43;;;19.20;82.90;;;;;;5160259;27;20453;-76
2022/08/02 05:01:03;;;;;;;0.70;0.40;;;19.30;88.70;;;;;;5160111;27;20511;-75
2022/08/02 05:03:30;;;;;;;0.60;0.43;;;19.30;84.10;;;;;;5160908;27;20826;-76
2022/08/02 05:05:59;;;;;;;1.10;0.60;;;19.40;75.80;;;;;;5159948;27;20878;-77
2022/08/02 05:08:26;;;;;;;0.73;0.50;;;19.50;57.90;;;;;;5159769;27;20461;-77
2022/08/02 05:10:53;;;;;;;1.30;0.50;;;19.70;43.20;;;;;;5160771;27;20479;-77
2022/08/02 05:13:24;;;;;;;0.60;0.30;;;19.80;27.70;;;;;;5160176;27;20813;-77
2022/08/02 05:15:51;;;;;;;2.40;1.40;;;20.30;1.00;;;;;;5160446;27;20450;-77
2022/08/02 05:18:22;;;;;;;0.80;0.50;;;20.50;1.00;;;;;;5158033;27;20781;-75
2022/08/02 05:20:49;;;;;;;1.47;0.47;;;20.50;1.00;;;;;;5133255;27;20482;-75
2022/08/02 05:23:17;;;;;;;0.60;0.37;;;20.50;1.00;;;;;;5138061;27;20455;-75
2022/08/02 05:25:44;;;;;;;0.60;0.50;;;20.60;1.00;;;;;;5136355;27;20542;-75
2022/08/02 05:28:11;;;;;;;0.70;0.47;;;20.70;1.00;;;;;;5137931;27;20515;-75
2022/08/02 05:30:38;;;;;;;0.57;0.40;;;20.80;1.00;;;;;;5138169;27;20472;-76
2022/08/02 05:33:05;;;;;;;0.50;0.40;;;20.80;1.00;;;;;;5138777;27;20471;-77
2022/08/02 05:35:39;;;;;;;0.60;0.40;;;21.00;1.00;;;;;;5139409;27;20564;-77
2022/08/02 05:38:07;;;;;;;0.57;0.40;;;21.20;1.00;;;;;;5138589;27;20451;-77
2022/08/02 05:40:36;;;;;;;1.00;0.50;;;21.30;1.00;;;;;;5119509;27;20536;-76
2022/08/02 05:43:03;;;;;;;0.90;0.50;;;21.30;99.90;;;;;;5137824;27;20461;-76
2022/08/02 05:45:34;;;;;;;0.60;0.40;;;21.20;1.00;;;;;;5138474;27;20475;-76
2022/08/02 05:48:01;;;;;;;3.73;0.57;;;21.00;1.00;;;;;;5138168;27;20452;-76
2022/08/02 05:50:28;;;;;;;0.77;0.50;;;20.90;1.00;;;;;;5137530;27;20489;-76
2022/08/02 05:53:03;;;;;;;0.70;0.60;;;20.90;1.00;;;;;;5136819;27;20663;-76
2022/08/02 05:55:38;;;;;;;0.70;0.40;;;20.80;1.00;;;;;;5138697;27;20748;-79
2022/08/02 05:58:17;;;;;;;0.80;0.50;;;21.10;1.00;;;;;;5139570;27;20516;-78
2022/08/02 06:00:49;;;;;;;0.70;0.50;;;21.20;1.00;;;;;;5141338;27;20566;-79
2022/08/02 06:03:24;;;;;;;0.70;0.50;;;21.40;99.90;;;;;;5140858;27;20950;-77
2022/08/02 06:05:59;;;;;;;0.70;0.50;;;21.40;99.90;;;;;;5142704;27;20439;-76
2022/08/02 06:08:32;;;;;;;0.70;0.50;;;21.40;99.90;;;;;;5151305;27;20443;-76
2022/08/02 06:11:02;;;;;;;0.70;0.53;;;21.30;1.00;;;;;;5136962;27;20923;-76
2022/08/02 06:13:29;;;;;;;0.70;0.50;;;21.30;1.00;;;;;;5136513;27;20444;-76
2022/08/02 06:15:58;;;;;;;1.00;0.50;;;21.30;99.90;;;;;;5137205;27;20955;-77
2022/08/02 06:18:27;;;;;;;0.60;0.50;;;21.30;99.90;;;;;;5137267;27;20773;-76
2022/08/02 06:20:57;;;;;;;0.80;0.50;;;21.60;1.00;;;;;;5131496;27;20479;-76
2022/08/02 06:23:26;;;;;;;0.70;0.50;;;21.70;1.00;;;;;;5135942;27;20922;-75
2022/08/02 06:25:54;;;;;;;0.83;0.63;;;21.80;1.00;;;;;;5136678;27;20432;-76
2022/08/02 06:28:23;;;;;;;0.70;0.50;;;21.80;1.00;;;;;;5135396;27;20524;-75
2022/08/02 06:30:50;;;;;;;0.70;0.60;;;21.90;99.90;;;;;;5136215;27;20513;-75
2022/08/02 06:33:17;;;;;;;1.87;0.60;;;21.90;1.00;;;;;;5136842;27;20899;-76
2022/08/02 06:35:46;;;;;;;0.73;0.53;;;21.90;99.90;;;;;;5136225;27;20736;-75
2022/08/02 06:38:21;;;;;;;0.80;0.60;;;21.90;1.00;;;;;;5137516;27;20447;-74
2022/08/02 06:40:55;;;;;;;0.67;0.50;;;22.00;1.00;;;;;;5121405;27;20511;-75
2022/08/02 06:43:43;;;;;;;1.70;0.50;;;22.10;99.90;;;;;;5134958;27;20481;-73
2022/08/02 06:46:10;;;;;;;0.80;0.60;;;22.20;1.00;;;;;;5136370;27;20290;-74
2022/08/02 06:48:37;;;;;;;1.10;0.70;;;22.30;1.00;;;;;;5135349;27;20549;-75
2022/08/02 06:51:05;;;;;;;1.00;0.70;;;22.20;99.90;;;;;;5134776;27;20954;-75
2022/08/02 06:53:33;;;;;;;1.73;0.80;;;22.00;1.00;;;;;;5133571;27;20452;-74
2022/08/02 06:56:00;;;;;;;1.00;0.70;;;22.10;1.00;;;;;;5131686;27;20555;-74
2022/08/02 06:58:29;;;;;;;2.60;0.60;;;22.20;1.00;;;;;;5135277;27;20498;-75
2022/08/02 07:00:56;;;;;;;0.90;0.57;;;22.30;99.90;;;;;;5129172;27;20476;-75
2022/08/02 07:03:24;;;;;;;0.70;0.60;;;22.40;99.90;;;;;;5134500;27;21033;-75
2022/08/02 07:05:51;;;;;;;0.80;0.70;;;22.50;99.90;;;;;;5133077;27;20788;-75
2022/08/02 07:08:19;;;;;;;0.90;0.60;;;22.50;1.00;;;;;;5134193;27;20483;-75
2022/08/02 07:10:48;;;;;;;0.77;0.60;;;22.60;99.90;;;;;;5134067;27;20816;-76
2022/08/02 07:13:15;;;;;;;0.83;0.60;;;22.60;60.00;;;;;;5133718;27;20480;-77
2022/08/02 07:15:43;;;;;;;0.90;0.60;;;22.60;1.00;;;;;;5132980;27;20527;-76
2022/08/02 07:18:13;;;;;;;0.97;0.70;;;22.60;13.60;;;;;;5134158;27;20482;-76
2022/08/02 07:20:41;;;;;;;0.80;0.57;;;22.70;1.00;;;;;;5118991;27;20476;-76
2022/08/02 07:23:08;;;;;;;0.80;0.60;;;22.80;1.00;;;;;;5128173;27;20742;-76
2022/08/02 07:25:35;;;;;;;1.00;0.67;;;22.80;99.90;;;;;;5132495;27;20563;-75
2022/08/02 07:28:02;;;;;;;2.30;0.80;;;23.10;99.90;;;;;;5135232;27;20444;-76
2022/08/02 07:30:31;;;;;;;0.93;0.70;;;23.10;92.10;;;;;;5135201;27;20756;-75
2022/08/02 07:33:00;;;;;;;0.87;0.60;;;23.10;64.40;;;;;;5133827;27;20452;-74
2022/08/02 07:35:27;;;;;;;0.80;0.60;;;23.10;99.90;;;;;;5134795;27;20455;-75
2022/08/02 07:37:54;;;;;;;0.87;0.67;;;23.30;71.60;;;;;;5133545;27;20451;-75
2022/08/02 07:40:22;;;;;;;0.97;0.70;;;23.40;1.00;;;;;;5135890;27;20523;-75
2022/08/02 07:42:50;;;;;;;0.80;0.50;;;23.40;1.00;;;;;;5136169;27;20479;-75
2022/08/02 07:45:18;;;;;;;0.70;0.53;;;23.40;1.00;;;;;;5135245;27;20899;-75
2022/08/02 07:48:04;;;;;;;2.80;0.80;;;23.60;1.00;;;;;;5134150;27;20831;-74
2022/08/02 07:50:33;;;;;;;0.97;0.67;;;23.80;1.00;;;;;;5144417;27;20452;-73
2022/08/02 07:53:00;;;;;;;1.00;0.67;;;23.60;1.00;;;;;;5135576;27;20484;-74
2022/08/02 07:55:27;;;;;;;0.73;0.50;;;23.70;1.00;;;;;;5136174;27;20490;-75
2022/08/02 07:57:55;;;;;;;2.70;0.70;;;23.80;1.00;;;;;;5135802;27;20483;-75
2022/08/02 08:00:22;;;;;;;3.33;0.70;;;23.90;1.00;;;;;;5134378;27;20579;-75
2022/08/02 08:02:49;;;;;;;1.00;0.80;;;24.00;99.90;;;;;;5134779;27;20451;-74
2022/08/02 08:05:19;;;;;;;0.63;0.50;;;24.10;99.90;;;;;;5134325;27;20509;-74
2022/08/02 08:07:47;;;;;;;0.83;0.63;;;24.20;99.90;;;;;;5135710;28;20513;-75
2022/08/02 08:10:15;;;;;;;1.27;0.80;;;24.20;99.90;;;;;;5134847;27;20458;-75
2022/08/02 08:12:42;;;;;;;0.97;0.63;;;24.20;99.90;;;;;;5135686;27;20604;-74
2022/08/02 08:15:10;;;;;;;0.90;0.60;;;24.20;99.90;;;;;;5135976;27;20455;-74
2022/08/02 08:17:37;;;;;;;0.80;0.70;;;24.30;99.90;;;;;;5139322;27;20480;-74
2022/08/02 08:20:05;;;;;;;0.80;0.70;;;24.30;99.90;;;;;;5140092;27;20519;-74
2022/08/02 08:22:32;;;;;;;0.90;0.80;;;24.40;99.90;;;;;;5140258;27;20929;-73
2022/08/02 08:25:00;;;;;;;1.00;0.70;;;24.30;99.90;;;;;;5132421;27;20485;-74
2022/08/02 08:27:27;;;;;;;0.90;0.63;;;24.30;99.90;;;;;;5118345;28;20444;-75
2022/08/02 08:29:55;;;;;;;1.00;0.80;;;24.30;99.90;;;;;;5135914;27;20495;-75
2022/08/02 08:32:22;;;;;;;1.00;0.60;;;24.50;99.90;;;;;;5138612;27;21042;-75
2022/08/02 08:34:50;;;;;;;0.80;0.60;;;24.70;99.90;;;;;;5137870;27;20898;-73
2022/08/02 08:37:18;;;;;;;0.87;0.80;;;24.90;99.90;;;;;;5137704;27;20447;-76
2022/08/02 08:39:50;;;;;;;1.00;0.70;;;24.80;18.90;;;;;;5138042;27;20456;-76
2022/08/02 08:42:18;;;;;;;1.58;0.80;;;24.80;1.00;;;;;;5137392;27;20861;-74
2022/08/02 08:44:45;;;;;;;1.50;0.70;;;24.90;1.00;;;;;;5137272;27;20202;-76
2022/08/02 08:47:13;;;;;;;0.80;0.67;;;25.00;1.00;;;;;;5137291;27;20451;-75
2022/08/02 08:49:44;;;;;;;0.90;0.73;;;25.30;1.00;;;;;;5117843;27;20447;-74
2022/08/02 08:52:16;;;;;;;1.10;0.70;;;25.40;1.00;;;;;;5136717;27;20479;-75
2022/08/02 08:54:45;;;;;;;1.80;0.80;;;25.50;1.00;;;;;;5137658;27;20894;-75
2022/08/02 08:57:12;;;;;;;0.90;0.80;;;25.50;1.00;;;;;;5118489;28;20441;-72
2022/08/02 08:59:42;;;;;;;1.00;0.90;;;25.30;1.00;;;;;;5132835;27;21079;-74
2022/08/02 09:02:13;;;;;;;1.13;0.70;;;25.00;1.00;;;;;;5138244;27;20789;-75
2022/08/02 09:04:40;;;;;;;0.90;0.77;;;25.10;1.00;;;;;;5136070;27;20452;-73
2022/08/02 09:07:09;;;;;;;1.03;0.80;;;25.40;1.00;;;;;;5137154;27;20444;-75
2022/08/02 09:09:36;;;;;;;2.70;0.83;;;25.50;1.00;;;;;;5138027;27;20983;-74
2022/08/02 09:12:14;;;;;;;1.10;0.90;;;25.70;1.00;;;;;;5137494;27;20675;-75
2022/08/02 09:14:49;;;;;;;0.97;0.80;;;26.00;1.00;;;;;;5136986;27;21066;-77
2022/08/02 09:17:18;;;;;;;1.40;1.00;;;26.20;1.00;;;;;;5136722;27;20447;-76
2022/08/02 09:19:47;;;;;;;1.10;0.90;;;26.30;1.00;;;;;;5139103;27;20487;-74
2022/08/02 09:22:29;;;;;;;1.20;0.80;;;26.20;1.00;;;;;;5137212;27;20929;-78
2022/08/02 09:24:56;;;;;;;0.90;0.80;;;26.40;1.00;;;;;;5132962;27;20458;-75
2022/08/02 09:27:23;;;;;;;1.10;0.70;;;26.30;1.00;;;;;;5134693;27;20902;-74
2022/08/02 09:29:54;;;;;;;4.80;0.90;;;26.20;1.00;;;;;;5136696;27;20933;-74
2022/08/02 09:32:21;;;;;;;1.00;0.80;;;26.30;1.00;;;;;;5126696;27;20486;-74
2022/08/02 09:34:49;;;;;;;1.17;0.80;;;26.50;1.00;;;;;;5137871;27;20818;-74
2022/08/02 09:37:25;;;;;;;2.50;0.80;;;26.70;1.00;;;;;;5137432;27;20588;-74
2022/08/02 09:39:52;;;;;;;0.83;0.70;;;26.70;1.00;;;;;;5137017;27;20817;-74
2022/08/02 09:42:19;;;;;;;1.23;0.80;;;26.80;1.00;;;;;;5135757;27;20863;-75
2022/08/02 09:44:58;;;;;;;1.10;0.80;;;27.00;1.00;;;;;;5135256;27;20456;-74
2022/08/02 09:47:25;;;;;;;2.90;1.87;;;27.30;1.00;;;;;;5135263;27;20439;-74
2022/08/02 09:49:54;;;;;;;1.33;0.80;;;27.30;1.00;;;;;;5135162;27;20535;-75
2022/08/02 09:52:27;;;;;;;1.00;0.90;;;27.50;1.00;;;;;;5132969;27;20448;-75
2022/08/02 09:54:55;;;;;;;0.80;0.73;;;27.50;1.00;;;;;;5134731;27;20452;-75
2022/08/02 09:57:32;;;;;;;1.10;0.90;;;27.30;1.00;;;;;;5136577;27;20476;-74
2022/08/02 10:00:00;;;;;;;1.47;0.77;;;27.20;1.00;;;;;;5137304;27;20209;-76
2022/08/02 10:02:27;;;;;;;1.30;1.00;;;27.10;1.00;;;;;;5136906;27;20863;-75
2022/08/02 10:04:55;;;;;;;0.73;0.70;;;27.00;1.00;;;;;;5136615;27;20491;-75
2022/08/02 10:07:22;;;;;;;1.13;0.90;;;27.00;1.00;;;;;;5132868;27;20546;-75
2022/08/02 10:09:50;;;;;;;1.00;0.80;;;27.10;1.00;;;;;;5133319;27;20456;-75
2022/08/02 10:12:17;;;;;;;1.10;0.60;;;27.40;1.00;;;;;;5123065;27;20788;-75
2022/08/02 10:14:45;;;;;;;2.17;1.10;;;27.70;1.00;;;;;;5115211;28;20456;-75
2022/08/02 10:17:15;;;;;;;1.00;0.70;;;27.80;1.00;;;;;;5114282;28;20538;-75
2022/08/02 10:19:42;;;;;;;1.00;0.73;;;28.00;1.00;;;;;;5114867;28;20533;-76
2022/08/02 10:22:11;;;;;;;0.90;0.80;;;28.10;1.00;;;;;;5114768;28;20476;-76
2022/08/02 10:24:40;;;;;;;1.67;0.87;;;28.50;1.00;;;;;;5113207;28;20981;-75
2022/08/02 10:27:13;;;;;;;1.00;0.77;;;29.00;1.00;;;;;;5114121;28;20472;-76
2022/08/02 10:29:44;;;;;;;0.97;0.87;;;29.20;1.00;;;;;;5114693;28;20504;-76
2022/08/02 10:32:16;;;;;;;1.07;0.77;;;29.30;1.00;;;;;;5113218;28;20444;-75
2022/08/02 10:34:48;;;;;;;1.17;0.80;;;29.50;1.00;;;;;;5114998;28;20518;-75
2022/08/02 10:37:17;;;;;;;0.90;0.70;;;29.30;1.00;;;;;;5114507;28;20543;-76
2022/08/02 10:39:47;;;;;;;0.90;0.80;;;29.20;1.00;;;;;;5113211;28;20452;-77
2022/08/02 10:42:51;;;;;;;1.53;0.80;;;29.10;1.00;;;;;;5111914;28;20508;-76
2022/08/02 10:45:20;;;;;;;1.37;0.70;;;29.50;1.00;;;;;;5111470;28;20448;-72
2022/08/02 10:48:08;;;;;;;0.93;0.87;;;29.80;1.00;;;;;;5113676;28;20510;-73
2022/08/02 10:50:55;;;;;;;0.90;0.80;;;29.60;1.00;;;;;;5113224;28;20449;-73
2022/08/02 10:53:27;;;;;;;1.13;0.80;;;29.70;1.00;;;;;;5112133;28;20483;-73
2022/08/02 10:55:57;;;;;;;0.80;0.60;;;30.20;1.00;;;;;;5115309;28;20551;-71
2022/08/02 10:58:26;;;;;;;1.10;0.83;;;30.40;1.00;;;;;;5122179;27;20922;-71
2022/08/02 11:00:54;;;;;;;2.13;0.80;;;30.70;1.00;;;;;;5135559;27;20480;-70
2022/08/02 11:03:44;;;;;;;1.30;0.90;;;30.50;1.00;;;;;;5135397;27;21125;-72
2022/08/02 11:06:13;;;;;;;1.00;0.77;;;30.20;1.00;;;;;;5121555;27;20518;-73
2022/08/02 11:08:40;;;;;;;1.00;0.80;;;29.80;1.00;;;;;;5113456;28;20533;-73
2022/08/02 11:11:18;;;;;;;1.07;0.80;;;29.50;1.00;;;;;;5133423;27;21087;-73
2022/08/02 11:14:02;;;;;;;1.00;0.87;;;29.30;1.00;;;;;;5133738;27;20489;-72
2022/08/02 11:17:08;;;;;;;1.50;0.90;;;29.00;1.00;;;;;;5133309;27;20440;-72
2022/08/02 11:20:16;;;;;;;1.17;0.90;;;28.70;1.00;;;;;;5135261;27;20488;-72
2022/08/02 11:22:45;;;;;;;1.13;0.90;;;28.50;1.00;;;;;;5135291;27;20790;-73
2022/08/02 11:25:33;;;;;;;0.90;0.73;;;28.90;1.00;;;;;;5126357;27;20595;-72
2022/08/02 11:28:09;;;;;;;1.23;0.70;;;29.60;1.00;;;;;;5108256;28;20452;-72
2022/08/02 11:30:37;;;;;;;1.67;1.57;;;30.40;1.00;;;;;;5112738;28;20488;-73
2022/08/02 11:33:04;;;;;;;1.13;0.87;;;31.20;1.00;;;;;;5112697;28;20437;-72
2022/08/02 11:35:38;;;;;;;1.20;0.80;;;31.50;1.00;;;;;;5112517;28;20444;-72
2022/08/02 11:38:17;;;;;;;1.07;0.97;;;31.90;1.00;;;;;;5113440;28;20464;-72
2022/08/02 11:40:45;;;;;;;0.80;0.70;;;32.00;1.00;;;;;;5111420;28;20483;-73
2022/08/02 11:43:20;;;;;;;2.07;0.90;;;32.00;1.00;;;;;;5089344;28;20487;-72
2022/08/02 11:45:47;;;;;;;1.00;0.80;;;31.60;1.00;;;;;;5092997;28;20535;-73
2022/08/02 11:48:14;;;;;;;2.93;1.73;;;31.50;1.00;;;;;;5091548;28;20888;-72
2022/08/02 11:50:43;;;;;;;1.00;0.80;;;31.30;1.00;;;;;;5090177;28;20837;-72
2022/08/02 11:53:15;;;;;;;1.03;0.80;;;31.50;1.00;;;;;;5090428;28;20437;-72
2022/08/02 11:55:42;;;;;;;0.97;0.80;;;32.00;1.00;;;;;;5119040;28;20447;-72
2022/08/02 11:58:10;;;;;;;3.13;0.80;;;32.10;1.00;;;;;;5112378;28;20536;-72
2022/08/02 12:00:39;;;;;;;1.43;0.70;;;32.30;1.00;;;;;;5133183;28;20497;-72
2022/08/02 12:03:08;;;;;;;0.70;0.60;;;32.20;1.00;;;;;;5122071;28;20943;-72
2022/08/02 12:05:35;;;;;;;1.00;0.80;;;32.10;1.00;;;;;;5112782;28;20521;-72
2022/08/02 12:08:08;;;;;;;0.90;0.80;;;31.80;1.00;;;;;;5111531;28;20479;-73
2022/08/02 12:10:35;;;;;;;0.90;0.80;;;30.70;1.00;;;;;;5111814;28;20444;-73
2022/08/02 12:13:02;;;;;;;0.90;0.70;;;30.40;1.00;;;;;;5130144;28;20474;-73
2022/08/02 12:15:36;;;;;;;1.03;0.80;;;30.80;1.00;;;;;;5134584;28;20463;-72
2022/08/02 12:20:48;;;;;;;1.73;0.90;;;30.70;1.00;;;;;;5132129;28;20572;-73
2022/08/02 12:23:16;;;;;;;0.83;0.70;;;30.50;1.00;;;;;;5129875;28;20488;-72
2022/08/02 12:25:43;;;;;;;0.90;0.70;;;30.20;1.00;;;;;;5133010;28;20494;-72
2022/08/02 12:28:21;;;;;;;0.80;0.80;;;29.80;1.00;;;;;;5132882;28;20490;-73
2022/08/02 12:30:53;;;;;;;1.10;0.87;;;29.80;1.00;;;;;;5134283;28;20663;-73
2022/08/02 12:33:21;;;;;;;2.50;0.80;;;30.10;1.00;;;;;;5133906;28;20448;-72
2022/08/02 12:35:49;;;;;;;0.97;0.70;;;30.00;1.00;;;;;;5134200;28;20549;-72
2022/08/02 12:38:17;;;;;;;0.80;0.70;;;29.80;1.00;;;;;;5133008;28;20848;-73
2022/08/02 12:40:45;;;;;;;1.47;0.80;;;29.50;1.00;;;;;;5130981;28;20487;-73
2022/08/02 12:43:19;;;;;;;0.90;0.80;;;29.40;1.00;;;;;;5133237;28;20761;-72
2022/08/02 12:45:49;;;;;;;0.90;0.70;;;29.40;1.00;;;;;;5134353;28;20815;-72
2022/08/02 12:48:17;;;;;;;0.80;0.77;;;29.40;1.00;;;;;;5133415;28;20552;-72
2022/08/02 12:50:45;;;;;;;1.50;0.80;;;29.40;1.00;;;;;;5134419;28;20460;-73
2022/08/02 12:53:15;;;;;;;0.80;0.70;;;29.10;1.00;;;;;;5131627;28;20443;-72
2022/08/02 12:55:51;;;;;;;0.90;0.70;;;28.80;1.00;;;;;;5124022;28;20512;-72
2022/08/02 12:58:18;;;;;;;0.90;0.80;;;28.70;1.00;;;;;;5131999;28;20458;-72
2022/08/02 13:00:53;;;;;;;0.80;0.70;;;29.30;1.00;;;;;;5132673;27;20486;-73
2022/08/02 13:03:20;;;;;;;1.83;0.80;;;30.20;1.00;;;;;;5135682;27;20770;-73
2022/08/02 13:05:48;;;;;;;1.10;0.70;;;30.70;1.00;;;;;;5135196;27;20770;-71
2022/08/02 13:08:15;;;;;;;0.90;0.80;;;31.10;1.00;;;;;;5134855;27;20543;-72
2022/08/02 13:10:42;;;;;;;0.83;0.77;;;31.30;1.00;;;;;;5135764;27;20541;-72